Aviation Digital Data Service (ADDS)

Output produced by METARs form (0603 UTC 25 June 2018)
found at http://www.aviationweather.gov/adds/metars/
 
METAR text: KSET 250554Z AUTO 06006KT 10SM CLR 21/20 A2994 RMK AO2 SLP134 T02110200 10283 20211 402940183 55006
Conditions at: KSET (ST. CHARLES , MO, US) observed 0554 UTC 25 June 2018
Temperature: 21.1°C (70°F)
Dewpoint: 20.0°C (68°F) [RH = 93%]
Pressure (altimeter): 29.94 inches Hg (1014.0 mb)
[Sea-level pressure: 1013.4 mb]
Winds: from the ENE (60 degrees) at 7 MPH (6 knots; 3.1 m/s)
Visibility: 10 or more miles (16+ km)
Ceiling: at least 12,000 feet AGL
Clouds: sky clear below 12,000 feet AGL
Weather: automated observation with no human augmentation;
there may or may not be significant weather present at this time